Time;durP1;ratioP1;P1;durP2;ratioP2;P2;SDS_P1;SDS_P2;PMS_P1;PMS_P2;Temp;Humidity;BMP_temperature;BMP_pressure;BME280_temperature;BME280_humidity;BME280_pressure;Samples;Min_cycle;Max_cycle;Signal;HPM_P1;HPM_P2
2023/10/10 00:02:29;;;;;;;13.65;8.52;;;;;;;14.71;67.09;99442.16;4443666;32;33351;-83
2023/10/10 00:04:55;;;;;;;12.82;8.45;;;;;;;14.49;67.93;99447.31;4447340;32;34885;-82
2023/10/10 00:07:26;;;;;;;12.82;8.50;;;;;;;14.41;68.46;99443.81;4446366;32;33424;-83
2023/10/10 00:09:55;;;;;;;11.90;8.05;;;;;;;14.57;68.00;99448.19;4451805;32;34159;-82
2023/10/10 00:12:28;;;;;;;11.35;8.60;;;;;;;14.49;68.72;99442.13;4422447;32;33961;-82
2023/10/10 00:15:11;;;;;;;13.80;8.88;;;;;;;14.54;69.02;99449.94;4436369;32;34336;-82
2023/10/10 00:17:41;;;;;;;12.82;8.60;;;;;;;14.58;69.11;99433.41;4436841;32;33166;-81
2023/10/10 00:20:25;;;;;;;11.85;9.18;;;;;;;14.78;69.17;99444.75;4411320;32;33836;-81
2023/10/10 00:22:58;;;;;;;12.65;8.63;;;;;;;14.73;70.14;99436.03;4437918;32;35422;-89
2023/10/10 00:25:37;;;;;;;12.98;8.80;;;;;;;14.93;69.62;99441.28;4436159;32;33803;-81
2023/10/10 00:28:16;;;;;;;13.95;9.63;;;;;;;14.88;69.93;99436.91;4423823;32;33826;-81
2023/10/10 00:30:45;;;;;;;13.70;9.55;;;;;;;15.00;69.69;99440.41;4447215;32;34024;-80
2023/10/10 00:33:16;;;;;;;14.48;9.85;;;;;;;14.91;70.61;99448.22;4428905;32;33471;-83
2023/10/10 00:35:44;;;;;;;13.30;10.15;;;;;;;14.88;70.74;99449.97;4443718;32;33235;-87
2023/10/10 00:38:18;;;;;;;15.60;11.98;;;;;;;15.01;70.59;99452.56;4449342;32;34014;-81
2023/10/10 00:40:47;;;;;;;15.43;11.63;;;;;;;14.83;72.54;99447.34;4450087;32;34717;-82
2023/10/10 00:43:23;;;;;;;22.10;13.62;;;;;;;14.87;73.07;99454.31;4451504;32;33774;-81
2023/10/10 00:45:55;;;;;;;;;;;;;;;14.76;73.50;99436.03;4442182;32;33206;-81
2023/10/10 00:48:24;;;;;;;20.80;11.82;;;;;;;15.31;71.70;99441.22;4450884;32;34132;-81
2023/10/10 00:51:05;;;;;;;15.57;12.23;;;;;;;15.02;72.74;99443.00;4428379;32;34054;-90
2023/10/10 00:53:35;;;;;;;17.77;12.82;;;;;;;14.80;73.00;99448.22;4432422;32;33829;-83
2023/10/10 00:56:07;;;;;;;20.08;12.90;;;;;;;14.23;75.40;99448.97;4425214;32;31792;-82
2023/10/10 00:58:36;;;;;;;17.75;12.68;;;;;;;14.19;75.76;99452.44;4429620;32;34822;-84
2023/10/10 01:01:14;;;;;;;18.15;11.75;;;;;;;14.43;74.74;99457.72;4424319;32;33809;-83
2023/10/10 01:03:45;;;;;;;18.30;12.23;;;;;;;14.67;73.10;99458.66;4438203;32;33563;-84
2023/10/10 01:06:14;;;;;;;17.58;11.60;;;;;;;14.48;72.80;99458.59;4431731;32;32675;-82
2023/10/10 01:08:50;;;;;;;15.38;10.85;;;;;;;14.34;72.36;99465.53;4439150;32;34805;-84
2023/10/10 01:11:19;;;;;;;19.40;11.95;;;;;;;14.39;71.33;99465.53;4424655;32;34172;-83
2023/10/10 01:13:47;;;;;;;16.25;11.60;;;;;;;14.16;70.58;99471.56;4443877;32;33821;-83
2023/10/10 01:16:15;;;;;;;23.20;14.87;;;;;;;14.09;70.26;99461.97;4444962;32;33824;-83
2023/10/10 01:18:51;;;;;;;25.33;13.82;;;;;;;13.36;72.74;99468.56;4439327;32;34137;-85
2023/10/10 01:21:32;;;;;;;24.60;13.25;;;;;;;13.83;70.42;99475.78;4439299;32;34888;-84
2023/10/10 01:24:07;;;;;;;26.05;12.30;;;;;;;13.45;71.20;99473.00;4445947;32;34712;-83
2023/10/10 01:26:38;;;;;;;20.40;11.98;;;;;;;13.65;70.74;99470.50;4449422;32;33548;-84
2023/10/10 01:31:52;;;;;;;21.55;11.68;;;;;;;12.99;71.62;99493.44;4435648;32;33856;-83
2023/10/10 01:34:31;;;;;;;20.20;11.57;;;;;;;12.87;72.21;99490.72;4441592;32;33948;-82
2023/10/10 01:37:27;;;;;;;17.05;12.13;;;;;;;13.07;71.39;99491.78;4427939;32;33418;-82
2023/10/10 01:40:10;;;;;;;17.02;11.50;;;;;;;12.81;72.79;99488.09;4424283;32;33675;-84
2023/10/10 01:42:44;;;;;;;15.13;10.15;;;;;;;12.52;72.64;99491.28;4426380;32;33485;-83
2023/10/10 01:45:18;;;;;;;16.58;10.90;;;;;;;12.42;72.49;99494.62;4433867;32;33790;-84
2023/10/10 01:50:47;;;;;;;17.05;11.85;;;;;;;12.13;74.53;99491.72;4403793;32;33534;-83
2023/10/10 01:53:15;;;;;;;20.00;11.12;;;;;;;12.38;73.48;99491.13;4449615;32;33461;-82
2023/10/10 01:55:47;;;;;;;17.70;11.27;;;;;;;12.47;73.18;99497.31;4441497;32;33940;-84
2023/10/10 01:58:19;;;;;;;19.40;11.55;;;;;;;12.47;72.95;99486.91;4443826;32;33480;-84
2023/10/10 02:00:47;;;;;;;20.88;12.20;;;;;;;12.48;72.87;99479.09;4435034;32;33284;-82
2023/10/10 02:03:18;;;;;;;19.25;12.80;;;;;;;11.72;75.68;99485.97;4437290;32;34624;-81
2023/10/10 02:05:48;;;;;;;22.73;12.48;;;;;;;11.98;75.58;99489.81;4441403;32;34672;-83
2023/10/10 02:08:22;;;;;;;17.55;12.02;;;;;;;12.10;74.42;99482.16;4445774;32;34112;-83
2023/10/10 02:10:49;;;;;;;16.83;11.60;;;;;;;12.34;73.80;99485.88;4447755;32;33728;-83
2023/10/10 02:13:18;;;;;;;18.98;12.57;;;;;;;12.13;74.37;99484.81;4457153;32;33432;-82
2023/10/10 02:15:45;;;;;;;17.85;11.75;;;;;;;12.51;73.56;99488.69;4452165;32;33924;-83
2023/10/10 02:18:14;;;;;;;17.62;10.95;;;;;;;12.83;72.83;99483.75;4442428;32;34227;-83
2023/10/10 02:23:31;;;;;;;17.20;11.20;;;;;;;13.18;72.11;99480.56;4450810;32;33729;-83
2023/10/10 02:28:48;;;;;;;18.42;11.10;;;;;;;13.43;70.72;99476.44;4445106;32;33239;-83
2023/10/10 02:31:16;;;;;;;17.85;10.55;;;;;;;13.33;71.10;99494.62;4428316;32;33868;-83
2023/10/10 02:33:55;;;;;;;16.15;9.98;;;;;;;13.55;70.87;99495.59;4436797;32;33818;-83
2023/10/10 02:36:34;;;;;;;12.07;9.90;;;;;;;13.70;70.38;99493.94;4449944;32;33894;-83
2023/10/10 02:39:26;;;;;;;19.60;10.65;;;;;;;13.73;69.94;99483.56;4447732;32;31831;-81
2023/10/10 02:41:59;;;;;;;20.23;11.50;;;;;;;13.69;70.15;99482.66;4439792;32;34091;-85
2023/10/10 02:44:46;;;;;;;16.73;10.57;;;;;;;13.91;69.44;99494.06;4440030;32;33977;-83
2023/10/10 02:47:14;;;;;;;15.20;10.02;;;;;;;13.96;69.12;99497.56;4448650;32;34203;-83
2023/10/10 02:49:42;;;;;;;18.83;10.82;;;;;;;13.67;69.91;99499.13;4431737;32;33467;-83
2023/10/10 02:52:14;;;;;;;16.70;10.07;;;;;;;13.54;69.70;99496.47;4445656;32;33805;-83
2023/10/10 02:54:53;;;;;;;15.45;9.90;;;;;;;13.63;68.97;99495.66;4437761;32;33702;-81
2023/10/10 02:59:59;;;;;;;15.85;9.73;;;;;;;13.25;70.83;99506.69;4436793;32;34547;-82
2023/10/10 03:02:30;;;;;;;16.52;9.88;;;;;;;13.69;69.66;99494.81;4423027;32;33905;-83
2023/10/10 03:07:29;;;;;;;16.02;10.32;;;;;;;13.35;70.16;99512.84;4427656;32;34202;-84
2023/10/10 03:12:53;;;;;;;14.95;11.07;;;;;;;12.99;70.22;99506.44;4444013;32;33906;-83
2023/10/10 03:18:04;;;;;;;21.80;11.63;;;;;;;12.63;71.15;99507.88;4441115;32;33773;-83
2023/10/10 03:31:22;;;;;;;21.23;12.27;;;;;;;12.46;72.08;99509.41;4436005;32;34177;-83
2023/10/10 03:34:18;;;;;;;19.23;12.45;;;;;;;12.35;72.30;99518.81;4440614;32;33800;-84
2023/10/10 03:37:08;;;;;;;18.90;12.23;;;;;;;12.43;72.13;99516.34;4425589;32;34140;-83
2023/10/10 03:39:49;;;;;;;16.58;11.30;;;;;;;12.20;72.86;99510.84;4442343;32;34163;-84
2023/10/10 05:23:29;;;;;;;18.00;10.43;;;;;;;11.98;72.95;99515.81;4439335;32;34000;-83
2023/10/10 05:25:23;;;;;;;15.55;8.27;;;;;;;11.70;73.15;99584.63;4436449;32;34520;-84
2023/10/10 05:27:52;;;;;;;13.98;7.62;;;;;;;11.72;72.99;99587.28;4435182;32;34099;-84
2023/10/10 05:30:39;;;;;;;20.00;7.07;;;;;;;11.23;73.76;99597.75;4423178;32;34317;-84
2023/10/10 05:33:07;;;;;;;14.30;7.70;;;;;;;11.42;72.89;99596.34;4435195;32;33201;-85
2023/10/10 05:35:37;;;;;;;17.25;8.23;;;;;;;11.38;73.04;99597.13;4434541;32;35323;-82
2023/10/10 05:38:09;;;;;;;14.02;7.90;;;;;;;11.24;74.00;99603.81;4435391;32;34582;-84
2023/10/10 05:40:40;;;;;;;13.30;8.45;;;;;;;11.20;74.57;99614.13;4429570;32;34162;-84
2023/10/10 05:43:09;;;;;;;19.40;8.10;;;;;;;11.71;72.77;99611.50;4436034;32;33677;-86
2023/10/10 05:45:37;;;;;;;17.10;8.02;;;;;;;11.43;73.35;99609.31;4443611;32;33792;-84
2023/10/10 05:48:05;;;;;;;15.68;8.32;;;;;;;11.60;72.42;99614.81;4435501;32;33801;-85
2023/10/10 05:50:32;;;;;;;17.85;8.02;;;;;;;11.61;72.38;99613.94;4444461;32;34067;-85
2023/10/10 05:53:00;;;;;;;19.12;9.15;;;;;;;11.48;72.34;99625.00;4460074;32;33616;-85
2023/10/10 05:55:28;;;;;;;20.27;8.25;;;;;;;11.72;71.59;99629.72;4452171;32;33846;-85
2023/10/10 05:57:57;;;;;;;17.20;8.70;;;;;;;11.74;71.69;99632.31;4450587;32;35081;-84
2023/10/10 06:00:26;;;;;;;21.50;8.80;;;;;;;11.76;71.38;99633.22;4456083;32;33606;-84
2023/10/10 06:02:54;;;;;;;19.12;9.35;;;;;;;11.95;70.70;99632.69;4454536;32;33106;-87
2023/10/10 06:05:22;;;;;;;19.15;10.07;;;;;;;11.58;71.58;99637.28;4452143;32;33424;-84
2023/10/10 06:07:50;;;;;;;19.90;9.85;;;;;;;11.57;71.98;99634.66;4457207;32;35048;-83
2023/10/10 06:10:17;;;;;;;21.75;10.48;;;;;;;11.86;71.53;99629.97;4453305;32;32444;-83
2023/10/10 06:12:48;;;;;;;21.98;9.77;;;;;;;11.11;73.21;99634.75;4459235;32;33521;-85
2023/10/10 06:15:17;;;;;;;22.98;11.35;;;;;;;11.65;72.03;99639.12;4448688;32;34014;-85
2023/10/10 06:17:46;;;;;;;17.12;10.15;;;;;;;11.94;70.92;99641.34;4456046;32;35032;-85
2023/10/10 06:20:16;;;;;;;17.85;9.70;;;;;;;11.51;71.30;99648.41;4451238;32;33668;-84
2023/10/10 06:22:45;;;;;;;20.17;10.75;;;;;;;11.88;69.64;99649.03;4466398;32;34267;-84
2023/10/10 06:25:17;;;;;;;25.30;10.50;;;;;;;11.92;70.04;99649.09;4461256;32;34795;-82
2023/10/10 06:27:45;;;;;;;21.30;11.63;;;;;;;11.48;69.73;99657.84;4461370;32;34273;-83
2023/10/10 06:30:19;;;;;;;19.87;10.13;;;;;;;11.89;67.81;99658.56;4464999;32;34211;-84
2023/10/10 06:32:47;;;;;;;18.55;10.27;;;;;;;12.05;67.60;99654.50;4450307;32;33872;-84
2023/10/10 06:37:44;;;;;;;19.02;10.55;;;;;;;11.80;68.41;99664.47;4450296;32;34893;-85
2023/10/10 06:40:14;;;;;;;19.90;11.02;;;;;;;12.08;67.50;99654.50;4455066;32;34251;-84
2023/10/10 06:42:47;;;;;;;15.98;9.98;;;;;;;12.56;65.37;99651.69;4461623;32;34512;-84
2023/10/10 06:45:22;;;;;;;21.70;10.82;;;;;;;12.58;65.30;99655.22;4450639;32;33929;-84
2023/10/10 06:47:54;;;;;;;22.00;10.90;;;;;;;11.97;66.74;99667.38;4453233;32;34163;-83
2023/10/10 06:50:22;;;;;;;20.27;11.23;;;;;;;12.07;68.01;99666.63;4458559;32;33840;-84
2023/10/10 06:52:54;;;;;;;20.75;10.95;;;;;;;11.84;66.83;99665.41;4455554;32;33415;-84
2023/10/10 06:55:23;;;;;;;22.30;11.63;;;;;;;11.92;67.60;99671.59;4455023;32;34418;-83
2023/10/10 06:57:59;;;;;;;23.00;12.32;;;;;;;11.92;66.67;99679.41;4467970;32;33990;-85
2023/10/10 07:00:28;;;;;;;21.25;11.43;;;;;;;12.07;66.29;99681.34;4454301;32;34253;-84
2023/10/10 07:02:57;;;;;;;24.45;11.65;;;;;;;11.88;67.52;99686.28;4467909;32;34537;-84
2023/10/10 07:05:33;;;;;;;22.77;11.77;;;;;;;11.80;68.25;99681.78;4454020;32;34609;-84
2023/10/10 07:11:02;;;;;;;20.12;10.60;;;;;;;11.89;67.32;99689.75;4406632;32;34244;-84
2023/10/10 07:13:30;;;;;;;18.10;11.18;;;;;;;11.92;67.91;99680.28;4461547;32;33166;-83
2023/10/10 07:15:58;;;;;;;19.25;10.63;;;;;;;11.91;68.04;99688.06;4452243;32;33704;-83
2023/10/10 07:18:26;;;;;;;21.12;11.90;;;;;;;11.81;68.21;99694.78;4444919;32;35235;-84
2023/10/10 07:21:04;;;;;;;20.20;11.48;;;;;;;12.07;67.06;99696.94;4467920;32;33860;-83
2023/10/10 07:24:05;;;;;;;21.48;11.38;;;;;;;11.92;66.25;99700.19;4454437;32;33741;-83
2023/10/10 07:26:41;;;;;;;19.52;11.45;;;;;;;12.16;67.27;99705.78;4453007;32;33771;-84
2023/10/10 07:29:26;;;;;;;20.05;11.43;;;;;;;11.98;67.21;99710.69;4452432;32;34229;-83
2023/10/10 07:34:42;;;;;;;;;;;;;;;12.27;65.62;99707.62;4455810;32;33097;-85
2023/10/10 07:37:09;;;;;;;25.48;12.88;;;;;;;12.42;65.09;99707.84;4466122;32;34309;-84
2023/10/10 07:39:54;;;;;;;19.23;11.32;;;;;;;12.65;65.05;99700.34;4467641;32;34892;-84
2023/10/10 07:42:34;;;;;;;21.27;11.83;;;;;;;12.10;66.08;99700.47;4455400;32;34352;-84
2023/10/10 07:45:03;;;;;;;19.73;11.73;;;;;;;12.29;64.34;99695.53;4461403;32;34161;-84
2023/10/10 07:47:32;;;;;;;19.70;12.07;;;;;;;12.39;63.98;99713.91;4451597;32;33821;-85
2023/10/10 07:50:08;;;;;;;19.60;11.93;;;;;;;12.62;64.06;99701.22;4456146;32;34114;-82
2023/10/10 07:52:37;;;;;;;20.12;10.88;;;;;;;12.66;63.56;99696.94;4455700;32;33902;-85
2023/10/10 07:55:04;;;;;;;19.23;11.82;;;;;;;12.58;62.83;99699.44;4453092;32;34280;-85
2023/10/10 07:57:55;;;;;;;19.00;10.95;;;;;;;12.41;62.45;99695.72;4450785;32;33812;-85
2023/10/10 08:00:26;;;;;;;16.83;11.00;;;;;;;12.92;61.34;99699.84;4452378;32;34164;-85
2023/10/10 08:02:54;;;;;;;20.27;11.90;;;;;;;12.37;63.39;99701.72;4451574;32;33926;-84
2023/10/10 08:05:22;;;;;;;19.67;11.05;;;;;;;12.54;61.70;99697.66;4458758;32;33641;-84
2023/10/10 08:07:50;;;;;;;17.95;10.95;;;;;;;12.65;61.78;99698.66;4467352;32;33933;-85
2023/10/10 08:10:31;;;;;;;18.87;10.63;;;;;;;12.95;62.46;99699.88;4467153;32;34918;-84
2023/10/10 08:13:09;;;;;;;19.50;11.35;;;;;;;12.72;62.80;99698.72;4451734;32;33653;-83
2023/10/10 08:16:01;;;;;;;19.08;11.63;;;;;;;12.87;61.28;99691.97;4438861;32;33461;-83
2023/10/10 08:21:14;;;;;;;19.33;10.88;;;;;;;13.13;62.21;99686.19;4438854;32;33932;-84
2023/10/10 08:23:42;;;;;;;21.80;12.23;;;;;;;13.06;61.19;99698.25;4450382;32;34639;-84
2023/10/10 08:26:28;;;;;;;19.90;12.40;;;;;;;12.87;62.45;99704.09;4451753;32;34048;-83
2023/10/10 08:28:56;;;;;;;25.05;13.45;;;;;;;13.19;62.58;99707.09;4451882;32;33435;-84
2023/10/10 08:31:42;;;;;;;27.27;14.02;;;;;;;12.99;61.56;99704.25;4451594;32;34906;-83
2023/10/10 08:34:11;;;;;;;22.58;12.43;;;;;;;13.21;61.43;99720.13;4451543;32;34883;-83
2023/10/10 08:36:43;;;;;;;23.90;12.95;;;;;;;13.28;61.93;99730.66;4451482;32;33397;-85
2023/10/10 08:39:25;;;;;;;24.80;13.95;;;;;;;13.43;60.71;99716.91;4451586;32;33644;-85
2023/10/10 08:41:53;;;;;;;27.08;14.77;;;;;;;13.42;61.44;99728.19;4439283;32;33903;-84
2023/10/10 08:44:21;;;;;;;24.87;14.18;;;;;;;13.39;62.97;99717.75;4451403;32;33587;-83
2023/10/10 08:46:52;;;;;;;26.92;14.07;;;;;;;13.53;61.81;99726.56;4437216;32;34047;-83
2023/10/10 08:49:19;;;;;;;26.87;13.25;;;;;;;14.04;60.06;99735.69;4451288;32;33969;-84
2023/10/10 08:51:49;;;;;;;25.77;14.25;;;;;;;13.77;60.87;99725.91;4451657;32;33715;-84
2023/10/10 08:54:17;;;;;;;28.85;16.05;;;;;;;13.81;61.12;99732.03;4437778;32;33613;-84
2023/10/10 08:57:09;;;;;;;30.02;14.13;;;;;;;13.62;61.84;99734.47;4437493;32;34260;-84
2023/10/10 08:59:42;;;;;;;26.62;13.98;;;;;;;13.83;60.48;99732.94;4440115;32;33902;-83
2023/10/10 09:02:16;;;;;;;21.30;13.25;;;;;;;13.69;61.60;99734.53;4451550;32;33788;-84
2023/10/10 09:04:44;;;;;;;21.08;12.13;;;;;;;13.79;60.94;99737.25;4451175;32;33770;-83
2023/10/10 09:07:27;;;;;;;20.73;12.75;;;;;;;13.92;59.91;99735.59;4437902;32;33066;-83
2023/10/10 09:10:04;;;;;;;20.88;11.27;;;;;;;13.84;58.99;99737.28;4438793;32;34276;-84
2023/10/10 09:12:34;;;;;;;18.85;12.02;;;;;;;14.07;58.78;99742.69;4451518;32;33629;-84
2023/10/10 09:15:16;;;;;;;21.35;12.43;;;;;;;14.00;59.44;99751.31;4437254;32;34575;-84
2023/10/10 09:17:45;;;;;;;21.67;12.00;;;;;;;14.34;59.22;99750.69;4451457;32;33027;-84
2023/10/10 09:20:22;;;;;;;21.42;11.82;;;;;;;14.16;57.86;99755.78;4451265;32;33939;-84
2023/10/10 09:22:55;;;;;;;18.35;11.30;;;;;;;13.62;60.06;99755.31;4437481;32;34081;-84
2023/10/10 09:25:31;;;;;;;19.62;12.00;;;;;;;13.92;59.61;99756.47;4451309;32;34572;-83
2023/10/10 09:28:07;;;;;;;24.63;13.80;;;;;;;14.07;58.87;99761.81;4451163;32;33385;-84
2023/10/10 09:30:45;;;;;;;20.27;11.65;;;;;;;14.09;58.75;99753.97;4437703;32;33723;-84
2023/10/10 09:35:59;;;;;;;25.12;13.25;;;;;;;13.70;60.22;99754.50;4451155;32;33940;-83
2023/10/10 09:38:33;;;;;;;23.95;13.60;;;;;;;13.62;62.45;99759.66;4437554;32;33207;-84
2023/10/10 09:41:14;;;;;;;22.20;12.35;;;;;;;13.63;62.88;99754.44;4451270;32;33648;-83
2023/10/10 09:44:01;;;;;;;22.15;12.65;;;;;;;13.65;62.10;99757.09;4441020;32;33705;-83
2023/10/10 09:46:53;;;;;;;21.65;12.98;;;;;;;13.83;61.95;99766.81;4442179;32;33989;-83
2023/10/10 09:58:01;;;;;;;20.52;13.00;;;;;;;13.95;62.71;99761.69;4452352;32;35017;-82
2023/10/10 10:06:34;;;;;;;26.50;14.25;;;;;;;14.15;63.78;99751.44;4459316;32;34084;-83
2023/10/10 10:09:09;;;;;;;22.65;14.18;;;;;;;14.09;61.98;99743.53;4450872;32;33730;-83
2023/10/10 10:12:08;;;;;;;21.75;12.60;;;;;;;14.04;62.35;99756.56;4450993;32;34184;-83
2023/10/10 10:15:16;;;;;;;23.45;13.23;;;;;;;14.14;61.06;99761.84;4437576;32;33809;-83
2023/10/10 10:17:57;;;;;;;20.42;12.45;;;;;;;14.16;61.90;99760.13;4451407;32;34035;-84
2023/10/10 10:20:43;;;;;;;23.10;13.57;;;;;;;13.82;62.22;99757.22;4442215;32;34604;-82
2023/10/10 10:23:27;;;;;;;23.58;12.95;;;;;;;13.80;63.21;99753.75;4469048;32;33205;-84
2023/10/10 10:26:04;;;;;;;23.92;13.68;;;;;;;14.08;61.48;99754.84;4460729;32;34041;-82
2023/10/10 10:28:35;;;;;;;22.40;13.75;;;;;;;13.83;62.14;99757.25;4455238;32;33992;-85
2023/10/10 10:31:16;;;;;;;23.67;14.20;;;;;;;13.63;63.26;99759.66;4455913;32;34087;-83
2023/10/10 10:34:05;;;;;;;23.02;13.82;;;;;;;14.08;61.61;99763.53;4455235;32;33588;-84
2023/10/10 10:36:43;;;;;;;22.17;14.05;;;;;;;14.32;60.99;99755.03;4468546;32;33726;-85
2023/10/10 10:39:19;;;;;;;27.05;15.02;;;;;;;14.44;60.85;99761.22;4454325;32;34236;-86
2023/10/10 10:41:56;;;;;;;22.13;15.15;;;;;;;14.47;61.90;99751.66;4468370;32;34602;-87
2023/10/10 10:47:34;;;;;;;22.60;13.45;;;;;;;14.55;61.41;99757.84;4456371;32;34961;-85
2023/10/10 10:50:04;;;;;;;27.48;14.30;;;;;;;14.50;60.41;99761.25;4468657;32;33813;-86
2023/10/10 10:52:44;;;;;;;23.62;14.48;;;;;;;14.31;60.84;99762.84;4468311;32;34003;-87
2023/10/10 10:55:27;;;;;;;22.70;14.32;;;;;;;14.30;61.51;99761.09;4468319;32;34553;-86
2023/10/10 11:03:35;;;;;;;26.37;16.52;;;;;;;14.71;61.97;99765.75;4468198;32;33977;-86
2023/10/10 11:06:09;;;;;;;32.55;15.55;;;;;;;14.78;62.20;99763.19;4466870;32;34207;-85
2023/10/10 11:09:28;;;;;;;27.40;16.45;;;;;;;14.84;63.34;99767.53;4467274;32;34055;-85
2023/10/10 11:16:46;;;;;;;27.17;15.70;;;;;;;14.88;64.27;99771.91;4467932;32;34298;-86
2023/10/10 11:21:53;;;;;;;28.30;17.00;;;;;;;14.97;64.96;99766.75;4454431;32;34056;-85
2023/10/10 11:24:24;;;;;;;29.25;18.33;;;;;;;14.95;63.97;99760.62;4453981;32;33354;-85
2023/10/10 11:27:13;;;;;;;30.02;16.17;;;;;;;15.27;62.59;99746.84;4468267;32;33377;-86
2023/10/10 11:29:50;;;;;;;24.25;15.45;;;;;;;15.26;61.38;99750.31;4467690;32;34076;-86
2023/10/10 11:32:24;;;;;;;25.12;15.60;;;;;;;15.13;62.09;99744.19;4467993;32;34232;-86
2023/10/10 11:34:57;;;;;;;24.50;15.70;;;;;;;15.09;62.51;99748.53;4467691;32;34655;-86
2023/10/10 11:37:32;;;;;;;27.58;16.50;;;;;;;15.31;62.27;99732.94;4468122;32;33411;-87
2023/10/10 11:43:05;;;;;;;30.90;16.80;;;;;;;15.56;62.67;99721.63;4467777;32;35165;-86
2023/10/10 11:45:39;;;;;;;27.23;15.27;;;;;;;15.35;64.04;99719.00;4454169;32;33620;-85
2023/10/10 11:48:15;;;;;;;24.37;15.35;;;;;;;15.63;62.08;99729.50;4454296;32;34491;-86
2023/10/10 11:50:48;;;;;;;36.63;16.23;;;;;;;15.14;63.27;99734.59;4454280;32;34726;-85
2023/10/10 11:53:23;;;;;;;23.92;15.57;;;;;;;15.04;62.20;99726.75;4467502;32;33734;-85
2023/10/10 11:55:53;;;;;;;24.75;16.05;;;;;;;14.98;62.06;99724.09;4467838;32;34656;-86
2023/10/10 11:58:23;;;;;;;27.23;17.08;;;;;;;15.05;63.18;99719.78;4453446;32;33329;-86
2023/10/10 12:01:03;;;;;;;29.35;16.95;;;;;;;15.04;62.82;99716.31;4467726;32;34658;-85
2023/10/10 12:06:26;;;;;;;25.60;16.95;;;;;;;14.92;63.25;99700.56;4454159;32;34574;-85
2023/10/10 12:08:54;;;;;;;28.15;16.80;;;;;;;15.00;63.11;99706.72;4467473;32;34082;-85
2023/10/10 12:11:22;;;;;;;26.83;17.20;;;;;;;14.94;63.31;99704.06;4467438;32;33795;-86
2023/10/10 12:13:52;;;;;;;31.33;17.60;;;;;;;15.06;64.00;99701.50;4453730;32;33775;-86
2023/10/10 12:16:23;;;;;;;26.77;16.77;;;;;;;15.61;61.82;99699.84;4467784;32;33912;-84
2023/10/10 12:18:55;;;;;;;25.25;16.73;;;;;;;15.03;63.46;99696.25;4467575;32;33313;-85
2023/10/10 12:21:23;;;;;;;28.20;17.35;;;;;;;15.47;63.10;99697.25;4453427;32;33979;-86
2023/10/10 12:23:55;;;;;;;26.35;16.10;;;;;;;15.56;63.34;99687.66;4467396;32;35000;-86
2023/10/10 12:26:29;;;;;;;27.55;16.33;;;;;;;15.27;64.43;99694.63;4454158;32;34476;-86
2023/10/10 12:28:58;;;;;;;29.90;18.02;;;;;;;15.75;63.89;99698.16;4453382;32;34284;-86
2023/10/10 12:31:25;;;;;;;27.98;17.58;;;;;;;15.87;63.78;99703.37;4453493;32;33839;-86
2023/10/10 12:33:53;;;;;;;25.55;16.95;;;;;;;16.00;63.40;99707.75;4467195;32;34009;-86
2023/10/10 12:36:22;;;;;;;28.67;16.60;;;;;;;16.02;62.48;99708.66;4467517;32;34147;-86
2023/10/10 12:38:49;;;;;;;27.92;16.20;;;;;;;16.53;60.15;99704.19;4453268;32;34408;-86
2023/10/10 12:41:20;;;;;;;25.12;15.98;;;;;;;16.21;61.00;99699.03;4467247;32;33815;-86
2023/10/10 12:43:49;;;;;;;26.52;15.82;;;;;;;16.27;61.96;99703.37;4466864;32;34337;-86
2023/10/10 12:46:20;;;;;;;25.52;16.40;;;;;;;16.48;61.27;99708.56;4453234;32;33891;-86
2023/10/10 12:48:51;;;;;;;24.92;17.48;;;;;;;16.36;60.76;99700.72;4467192;32;33301;-86
2023/10/10 12:51:23;;;;;;;28.42;17.73;;;;;;;16.56;61.17;99699.81;4453299;32;34430;-85
2023/10/10 12:54:00;;;;;;;28.12;16.77;;;;;;;17.01;59.21;99689.19;4467485;32;34155;-86
2023/10/10 12:56:28;;;;;;;25.50;15.82;;;;;;;16.69;61.69;99686.66;4467444;32;33913;-86
2023/10/10 12:59:03;;;;;;;30.45;17.73;;;;;;;16.70;62.09;99688.41;4467179;32;34394;-86
2023/10/10 13:01:55;;;;;;;27.27;16.73;;;;;;;16.66;62.58;99686.69;4467241;32;34032;-86
2023/10/10 13:04:29;;;;;;;26.30;16.12;;;;;;;16.92;62.23;99685.75;4467240;32;33837;-87
2023/10/10 13:07:03;;;;;;;23.62;15.70;;;;;;;16.90;61.84;99684.91;4467594;32;33492;-87
2023/10/10 13:09:32;;;;;;;28.38;16.62;;;;;;;17.02;61.95;99695.31;4467252;32;33434;-86
2023/10/10 13:12:02;;;;;;;24.75;16.17;;;;;;;16.93;62.35;99691.00;4448640;32;34401;-85
2023/10/10 13:14:32;;;;;;;27.20;16.08;;;;;;;17.00;62.22;99686.56;4438011;32;34135;-86
2023/10/10 13:17:28;;;;;;;30.62;16.73;;;;;;;16.83;63.87;99685.78;4437854;32;33656;-86
2023/10/10 13:19:58;;;;;;;31.60;16.30;;;;;;;17.03;62.40;99673.47;4451206;32;33451;-85
2023/10/10 13:22:29;;;;;;;26.85;16.05;;;;;;;17.23;62.80;99673.34;4451209;32;33717;-84
2023/10/10 13:24:57;;;;;;;27.95;16.60;;;;;;;17.16;62.85;99676.88;4451215;32;34265;-87
2023/10/10 13:27:25;;;;;;;28.20;17.75;;;;;;;17.06;63.24;99668.22;4451238;32;34837;-86
2023/10/10 13:29:53;;;;;;;30.85;18.30;;;;;;;16.99;63.96;99670.00;4453057;32;33281;-85
2023/10/10 13:32:21;;;;;;;28.45;19.77;;;;;;;16.99;64.33;99676.97;4455681;32;33958;-84
2023/10/10 13:34:48;;;;;;;32.97;17.90;;;;;;;17.10;63.31;99666.44;4466445;32;34138;-85
2023/10/10 13:37:16;;;;;;;27.67;17.02;;;;;;;17.20;62.53;99673.37;4464518;32;34608;-84
2023/10/10 13:39:43;;;;;;;26.73;16.62;;;;;;;16.91;65.02;99679.63;4464430;32;34424;-86
2023/10/10 13:42:14;;;;;;;25.00;16.40;;;;;;;16.95;64.84;99672.63;4463563;32;34424;-85
2023/10/10 13:44:42;;;;;;;27.75;17.85;;;;;;;16.99;64.63;99669.12;4451529;32;33980;-86
2023/10/10 13:47:10;;;;;;;29.20;17.70;;;;;;;16.98;64.89;99675.25;4455419;32;34081;-84
2023/10/10 13:49:44;;;;;;;24.73;17.95;;;;;;;16.83;65.87;99670.94;4449231;32;34311;-85
2023/10/10 13:52:13;;;;;;;30.15;19.02;;;;;;;16.82;65.98;99681.41;4451201;32;33683;-84
2023/10/10 13:54:40;;;;;;;27.25;19.05;;;;;;;16.80;66.07;99665.72;4453836;32;34179;-86
2023/10/10 13:57:09;;;;;;;26.55;17.70;;;;;;;16.81;66.11;99670.06;4454212;32;33976;-85
2023/10/10 13:59:37;;;;;;;27.17;18.27;;;;;;;16.80;66.14;99672.72;4468634;32;33642;-84
2023/10/10 14:02:10;;;;;;;29.10;16.77;;;;;;;16.79;66.29;99677.06;4468491;32;34801;-84
2023/10/10 14:04:48;;;;;;;28.95;17.77;;;;;;;16.94;65.98;99671.78;4467060;32;34061;-86
2023/10/10 14:07:16;;;;;;;30.05;17.08;;;;;;;16.90;66.39;99677.03;4458136;32;34480;-84
2023/10/10 14:09:49;;;;;;;25.98;17.60;;;;;;;16.87;66.96;99677.03;4454230;32;33388;-84
2023/10/10 14:12:31;;;;;;;26.17;17.80;;;;;;;16.87;67.06;99670.06;4459100;32;33389;-83
2023/10/10 14:15:01;;;;;;;28.85;17.45;;;;;;;16.84;67.25;99677.06;4452747;32;35001;-84
2023/10/10 14:17:29;;;;;;;28.30;17.48;;;;;;;16.83;67.40;99673.56;4452902;32;35042;-84
2023/10/10 14:19:59;;;;;;;24.77;16.25;;;;;;;16.98;67.05;99672.63;4452638;32;34347;-84
2023/10/10 14:22:27;;;;;;;29.45;16.83;;;;;;;17.02;67.03;99683.06;4459980;32;33429;-83
2023/10/10 14:25:16;;;;;;;26.08;16.08;;;;;;;17.03;67.08;99684.81;4465277;32;34061;-85
2023/10/10 14:27:44;;;;;;;29.25;17.50;;;;;;;17.09;67.26;99676.06;4456595;32;34111;-84
2023/10/10 14:30:20;;;;;;;22.55;15.77;;;;;;;17.11;67.21;99668.19;4461277;32;34369;-86
2023/10/10 14:32:55;;;;;;;26.33;16.33;;;;;;;17.18;66.94;99662.91;4441689;32;34312;-86
2023/10/10 14:35:23;;;;;;;26.35;16.73;;;;;;;17.15;67.05;99664.66;4468000;32;34175;-85
2023/10/10 14:37:56;;;;;;;25.70;16.85;;;;;;;16.98;67.73;99663.00;4460012;32;33656;-83
2023/10/10 14:40:28;;;;;;;27.65;16.80;;;;;;;16.84;68.27;99669.19;4461071;32;34124;-84
2023/10/10 14:42:56;;;;;;;25.27;18.05;;;;;;;16.92;67.92;99678.75;4461763;32;34939;-83
2023/10/10 14:45:28;;;;;;;29.45;17.48;;;;;;;16.72;68.36;99670.97;4466830;32;34994;-86
2023/10/10 14:47:56;;;;;;;28.23;17.42;;;;;;;16.62;68.71;99674.47;4466106;32;34460;-86
2023/10/10 14:50:24;;;;;;;26.20;17.37;;;;;;;16.69;68.00;99667.47;4467048;32;33200;-86
2023/10/10 14:52:53;;;;;;;24.42;15.50;;;;;;;16.65;68.35;99671.00;4449775;32;33279;-86